Time;durP1;ratioP1;P1;durP2;ratioP2;P2;SDS_P1;SDS_P2;PMS_P1;PMS_P2;Temp;Humidity;BMP_temperature;BMP_pressure;BME280_temperature;BME280_humidity;BME280_pressure;Samples;Min_cycle;Max_cycle;Signal;HPM_P1;HPM_P2
2022/08/20 00:02:25;;;;;;;11.73;10.63;;;16.50;99.90;;;;;;5026503;28;20209;-52
2022/08/20 00:04:53;;;;;;;11.10;10.30;;;16.50;99.90;;;;;;5015229;28;20892;-53
2022/08/20 00:07:20;;;;;;;11.23;10.33;;;16.50;99.90;;;;;;5021798;28;20203;-53
2022/08/20 00:09:47;;;;;;;10.80;9.97;;;16.50;99.90;;;;;;5031150;28;20230;-52
2022/08/20 00:12:17;;;;;;;11.37;10.47;;;16.50;99.90;;;;;;5031927;28;20289;-53
2022/08/20 00:14:45;;;;;;;10.67;9.87;;;16.60;99.90;;;;;;5031422;28;20246;-53
2022/08/20 00:17:12;;;;;;;11.70;10.67;;;16.60;99.90;;;;;;5025708;28;20280;-53
2022/08/20 00:19:39;;;;;;;11.10;10.20;;;16.70;99.90;;;;;;5032621;28;20687;-53
2022/08/20 00:22:06;;;;;;;12.40;11.30;;;16.70;99.90;;;;;;5024623;28;20265;-53
2022/08/20 00:24:34;;;;;;;11.17;10.27;;;16.60;99.90;;;;;;5032299;28;20194;-53
2022/08/20 00:27:01;;;;;;;11.47;10.57;;;16.60;99.90;;;;;;5029405;28;20719;-53
2022/08/20 00:29:28;;;;;;;11.23;10.27;;;16.60;99.90;;;;;;5032620;28;20218;-53
2022/08/20 00:31:57;;;;;;;9.77;9.07;;;16.70;99.90;;;;;;5030292;28;20222;-52
2022/08/20 00:34:24;;;;;;;10.83;9.77;;;16.70;99.90;;;;;;5023608;28;20221;-52
2022/08/20 00:36:51;;;;;;;12.70;11.57;;;16.70;99.90;;;;;;5023370;28;20207;-52
2022/08/20 00:39:18;;;;;;;11.93;10.83;;;16.70;99.90;;;;;;5031984;28;20195;-53
2022/08/20 00:41:45;;;;;;;12.10;11.10;;;16.70;99.90;;;;;;5031469;28;20214;-53
2022/08/20 00:44:16;;;;;;;12.10;11.10;;;16.70;99.90;;;;;;5031673;28;20294;-53
2022/08/20 00:46:47;;;;;;;14.40;13.00;;;16.70;99.90;;;;;;5022945;28;20234;-53
2022/08/20 00:49:20;;;;;;;11.27;10.30;;;16.70;99.90;;;;;;5031647;28;20303;-53
2022/08/20 00:51:52;;;;;;;11.90;10.90;;;16.70;99.90;;;;;;5024812;28;20257;-54
2022/08/20 00:54:24;;;;;;;13.33;12.23;;;16.60;99.90;;;;;;5026013;28;20287;-53
2022/08/20 00:56:56;;;;;;;12.47;11.37;;;16.60;99.90;;;;;;5031080;28;20294;-53
2022/08/20 00:59:27;;;;;;;13.43;12.23;;;16.70;99.90;;;;;;5031818;28;20627;-53
2022/08/20 01:01:54;;;;;;;11.80;10.80;;;16.60;99.90;;;;;;5030624;28;20310;-52
2022/08/20 01:04:25;;;;;;;13.47;12.23;;;16.60;99.90;;;;;;5024918;28;20205;-53
2022/08/20 01:06:52;;;;;;;14.93;13.53;;;16.60;99.90;;;;;;5026249;28;20210;-53
2022/08/20 01:09:19;;;;;;;15.17;13.87;;;16.60;99.90;;;;;;5030400;28;20348;-53
2022/08/20 01:11:46;;;;;;;14.50;13.20;;;16.60;99.90;;;;;;5031304;28;20206;-53
2022/08/20 01:14:29;;;;;;;13.37;12.17;;;16.60;99.90;;;;;;5030328;28;20210;-53
2022/08/20 01:17:00;;;;;;;14.73;13.43;;;16.60;99.90;;;;;;5027553;28;20680;-52
2022/08/20 01:19:34;;;;;;;16.17;14.77;;;16.60;99.90;;;;;;5031479;28;20195;-52
2022/08/20 01:23:25;;;;;;;14.70;13.37;;;16.60;99.90;;;;;;5031493;28;20206;-53
2022/08/20 01:24:55;;;;;;;16.47;15.07;;;16.60;99.90;;;;;;5031197;28;20542;-53
2022/08/20 01:27:24;;;;;;;15.73;14.33;;;16.60;99.90;;;;;;5027208;28;20293;-52
2022/08/20 01:29:52;;;;;;;16.77;15.37;;;16.60;99.90;;;;;;5028322;28;20638;-52
2022/08/20 01:32:19;;;;;;;17.73;16.13;;;16.60;99.90;;;;;;5025501;28;20195;-53
2022/08/20 01:34:46;;;;;;;17.40;15.83;;;16.60;99.90;;;;;;5030835;28;20230;-52
2022/08/20 01:37:13;;;;;;;16.07;14.67;;;16.60;99.90;;;;;;5025257;28;20290;-52
2022/08/20 01:39:40;;;;;;;18.17;16.50;;;16.60;99.90;;;;;;5027438;28;20274;-53
2022/08/20 01:42:12;;;;;;;17.10;15.50;;;16.60;99.90;;;;;;5031211;28;20198;-52
2022/08/20 01:44:43;;;;;;;17.40;15.83;;;16.60;99.90;;;;;;5031056;28;20254;-52
2022/08/20 01:47:14;;;;;;;14.70;13.47;;;16.60;99.90;;;;;;5025774;28;20607;-53
2022/08/20 01:49:44;;;;;;;13.80;12.73;;;16.60;99.90;;;;;;5028469;28;20233;-53
2022/08/20 01:52:20;;;;;;;14.07;12.77;;;16.60;99.90;;;;;;5030205;28;20206;-52
2022/08/20 01:54:47;;;;;;;13.30;12.20;;;16.60;99.90;;;;;;5029922;28;20726;-52
2022/08/20 01:57:16;;;;;;;12.93;11.70;;;16.60;99.90;;;;;;5029298;28;20206;-52
2022/08/20 01:59:45;;;;;;;13.00;11.87;;;16.70;99.90;;;;;;5030239;28;20198;-52
2022/08/20 02:02:12;;;;;;;14.23;13.10;;;16.60;99.90;;;;;;5030949;28;20205;-53
2022/08/20 02:04:41;;;;;;;14.80;13.60;;;16.60;99.90;;;;;;5029699;28;20237;-52
2022/08/20 02:07:14;;;;;;;16.93;15.33;;;16.60;99.90;;;;;;5025284;28;20257;-53
2022/08/20 02:09:42;;;;;;;15.07;13.70;;;16.60;99.90;;;;;;5028317;28;20222;-53
2022/08/20 02:12:10;;;;;;;21.17;15.00;;;16.60;99.90;;;;;;5030966;28;20213;-52
2022/08/20 02:14:41;;;;;;;13.90;12.63;;;16.60;99.90;;;;;;5030574;28;20260;-53
2022/08/20 02:17:12;;;;;;;15.77;14.47;;;16.60;99.90;;;;;;5027954;28;20202;-53
2022/08/20 02:19:42;;;;;;;16.00;14.60;;;16.60;99.90;;;;;;5023486;28;20714;-53
2022/08/20 02:22:16;;;;;;;15.53;14.13;;;16.60;99.90;;;;;;5021365;28;20205;-52
2022/08/20 02:24:43;;;;;;;15.90;14.40;;;16.60;99.90;;;;;;5027976;28;20718;-52
2022/08/20 02:27:11;;;;;;;16.70;15.13;;;16.60;99.90;;;;;;5030690;28;20199;-53
2022/08/20 02:29:38;;;;;;;17.37;15.77;;;16.60;99.90;;;;;;5022580;28;20223;-52
2022/08/20 02:32:06;;;;;;;18.83;17.10;;;16.50;99.90;;;;;;5023253;28;20199;-52
2022/08/20 02:34:35;;;;;;;17.23;15.63;;;16.50;99.90;;;;;;5030519;28;20676;-52
2022/08/20 02:37:02;;;;;;;21.20;19.33;;;16.50;99.90;;;;;;5030836;28;20742;-53
2022/08/20 02:39:29;;;;;;;22.10;19.97;;;16.60;99.90;;;;;;5029946;28;20677;-52
2022/08/20 02:41:56;;;;;;;21.07;18.93;;;16.60;99.90;;;;;;5029395;28;20207;-52
2022/08/20 02:44:23;;;;;;;21.10;19.10;;;16.60;99.90;;;;;;5030506;28;20214;-52
2022/08/20 02:46:51;;;;;;;21.70;19.40;;;16.60;99.90;;;;;;5030854;28;20213;-52
2022/08/20 02:49:19;;;;;;;22.80;20.63;;;16.60;99.90;;;;;;5030586;28;20726;-52
2022/08/20 02:51:48;;;;;;;21.23;19.13;;;16.50;99.90;;;;;;5021768;28;20221;-52
2022/08/20 02:54:16;;;;;;;22.17;20.07;;;16.50;99.90;;;;;;5029089;28;20582;-52
2022/08/20 02:56:43;;;;;;;22.27;20.03;;;16.50;99.90;;;;;;5030706;28;20313;-52
2022/08/20 02:59:10;;;;;;;22.03;19.93;;;16.50;99.90;;;;;;5030560;28;20550;-53
2022/08/20 03:01:37;;;;;;;23.00;20.70;;;16.40;99.90;;;;;;5021545;28;20860;-52
2022/08/20 03:04:05;;;;;;;20.93;18.97;;;16.40;99.90;;;;;;5029026;28;20206;-53
2022/08/20 03:06:32;;;;;;;20.87;18.87;;;16.40;99.90;;;;;;5029252;28;20313;-53
2022/08/20 03:09:03;;;;;;;19.20;17.60;;;16.40;99.90;;;;;;5030554;28;20221;-52
2022/08/20 03:11:30;;;;;;;18.93;17.13;;;16.40;99.90;;;;;;5023897;28;20696;-52
2022/08/20 03:13:57;;;;;;;18.07;16.57;;;16.40;99.90;;;;;;5033378;28;20226;-53
2022/08/20 03:16:24;;;;;;;19.30;17.70;;;16.30;99.90;;;;;;5033958;28;20747;-52
2022/08/20 03:18:51;;;;;;;19.97;18.10;;;16.30;99.90;;;;;;5033029;28;20198;-52
2022/08/20 03:21:18;;;;;;;18.60;16.93;;;16.30;99.90;;;;;;5032953;28;20652;-52
2022/08/20 03:23:45;;;;;;;19.10;17.10;;;16.30;99.90;;;;;;5033742;28;20199;-53
2022/08/20 03:26:15;;;;;;;18.87;17.10;;;16.30;99.90;;;;;;5034035;28;20230;-52
2022/08/20 03:28:43;;;;;;;18.13;16.47;;;16.30;99.90;;;;;;5032781;28;20230;-52
2022/08/20 03:31:10;;;;;;;20.53;18.63;;;16.30;99.90;;;;;;5031860;28;20626;-52
2022/08/20 03:33:38;;;;;;;17.70;16.00;;;16.30;99.90;;;;;;5033310;28;20197;-52
2022/08/20 03:36:06;;;;;;;18.67;17.00;;;16.30;99.90;;;;;;5033907;28;20222;-53
2022/08/20 03:38:33;;;;;;;20.63;18.57;;;16.30;99.90;;;;;;5033807;28;20199;-52
2022/08/20 03:41:00;;;;;;;16.97;15.47;;;16.30;99.90;;;;;;5029472;28;20664;-53
2022/08/20 03:43:29;;;;;;;18.67;16.97;;;16.30;99.90;;;;;;5027615;28;20281;-52
2022/08/20 03:45:56;;;;;;;17.93;16.43;;;16.30;99.90;;;;;;5033322;28;20264;-52
2022/08/20 03:48:23;;;;;;;19.77;17.97;;;16.30;99.90;;;;;;5033485;28;20202;-52
2022/08/20 03:50:51;;;;;;;20.73;18.73;;;16.40;99.90;;;;;;5027512;28;20292;-52
2022/08/20 03:53:19;;;;;;;19.27;17.57;;;16.40;99.90;;;;;;5020791;28;20258;-52
2022/08/20 03:55:48;;;;;;;21.03;19.10;;;16.40;99.90;;;;;;5018732;28;20276;-53
2022/08/20 03:58:18;;;;;;;20.23;18.30;;;16.40;99.90;;;;;;5027091;28;21402;-52
2022/08/20 04:00:50;;;;;;;21.20;19.27;;;16.40;99.90;;;;;;5021447;28;20688;-52
2022/08/20 04:03:18;;;;;;;19.70;17.97;;;16.40;99.90;;;;;;5028533;28;20632;-52
2022/08/20 04:05:45;;;;;;;21.40;19.40;;;16.40;99.90;;;;;;5028424;28;20226;-53
2022/08/20 04:08:15;;;;;;;20.80;18.80;;;16.40;99.90;;;;;;5013725;28;20202;-53
2022/08/20 04:10:44;;;;;;;21.90;19.77;;;16.40;99.90;;;;;;5021943;28;20218;-52
2022/08/20 04:13:11;;;;;;;20.33;18.33;;;16.50;99.90;;;;;;5021534;28;20256;-52
2022/08/20 04:15:38;;;;;;;19.90;17.97;;;16.40;99.90;;;;;;5013095;28;20223;-52
2022/08/20 04:18:10;;;;;;;19.33;17.63;;;16.40;99.90;;;;;;5013138;28;20199;-52
2022/08/20 04:20:40;;;;;;;20.27;18.27;;;16.40;99.90;;;;;;5015528;28;20215;-52
2022/08/20 04:23:07;;;;;;;20.43;18.53;;;16.40;99.90;;;;;;5019690;28;20256;-52
2022/08/20 04:25:39;;;;;;;23.30;21.07;;;16.40;99.90;;;;;;5012969;28;20303;-52
2022/08/20 04:28:08;;;;;;;22.40;20.27;;;16.30;99.90;;;;;;5013074;28;20195;-52
2022/08/20 04:30:36;;;;;;;25.90;23.47;;;16.30;99.90;;;;;;5019206;28;20269;-52
2022/08/20 04:33:06;;;;;;;23.30;21.10;;;16.30;99.90;;;;;;5025161;28;20225;-52
2022/08/20 04:35:34;;;;;;;25.37;22.80;;;16.30;99.90;;;;;;5012843;28;20211;-53
2022/08/20 04:38:06;;;;;;;23.23;21.07;;;16.30;99.90;;;;;;5029161;28;20203;-52
2022/08/20 04:40:56;;;;;;;24.77;22.47;;;16.30;99.90;;;;;;5017175;28;20195;-52
2022/08/20 04:43:25;;;;;;;22.67;20.37;;;16.30;99.90;;;;;;5026888;28;20198;-53
2022/08/20 04:45:52;;;;;;;23.93;21.57;;;16.20;99.90;;;;;;5032362;28;20250;-53
2022/08/20 04:48:23;;;;;;;23.67;21.43;;;16.30;99.90;;;;;;5032220;28;20675;-53
2022/08/20 04:50:51;;;;;;;26.77;24.07;;;16.30;99.90;;;;;;5029923;28;20222;-52
2022/08/20 04:53:22;;;;;;;25.47;22.97;;;16.30;99.90;;;;;;5032060;28;20547;-52
2022/08/20 04:55:50;;;;;;;23.27;21.07;;;16.30;99.90;;;;;;5032173;28;20242;-53
2022/08/20 04:58:18;;;;;;;23.13;21.03;;;16.30;99.90;;;;;;5029278;28;20198;-52
2022/08/20 05:00:47;;;;;;;26.77;24.20;;;16.30;99.90;;;;;;5022940;28;20264;-52
2022/08/20 05:03:15;;;;;;;26.70;23.97;;;16.30;99.90;;;;;;5029234;28;20199;-52
2022/08/20 05:05:45;;;;;;;25.33;22.83;;;16.30;99.90;;;;;;5032001;28;20569;-53
2022/08/20 05:08:14;;;;;;;25.40;23.07;;;16.30;99.90;;;;;;5032250;28;20199;-53
2022/08/20 05:10:42;;;;;;;25.40;22.90;;;16.40;99.90;;;;;;5030552;28;20753;-52
2022/08/20 05:13:09;;;;;;;25.60;23.00;;;16.30;99.90;;;;;;5024507;28;20260;-52
2022/08/20 05:15:38;;;;;;;25.97;23.43;;;16.30;99.90;;;;;;5031602;28;20226;-52
2022/08/20 05:18:07;;;;;;;26.23;23.73;;;16.30;99.90;;;;;;5021678;28;20234;-53
2022/08/20 05:20:37;;;;;;;27.43;24.57;;;16.40;99.90;;;;;;5030081;28;20289;-52
2022/08/20 05:23:11;;;;;;;26.83;24.17;;;16.50;99.90;;;;;;5030496;28;20221;-52
2022/08/20 05:25:40;;;;;;;27.57;24.83;;;16.50;99.90;;;;;;5023282;28;20292;-52
2022/08/20 05:28:11;;;;;;;26.17;23.67;;;16.60;99.90;;;;;;5022368;28;20250;-52
2022/08/20 05:30:39;;;;;;;25.53;23.13;;;16.60;99.90;;;;;;5030064;28;20313;-52
2022/08/20 05:33:08;;;;;;;26.17;23.73;;;16.70;99.90;;;;;;5031175;28;20195;-53
2022/08/20 05:35:38;;;;;;;25.40;22.90;;;16.80;99.90;;;;;;5028775;28;20277;-53
2022/08/20 05:38:07;;;;;;;25.07;22.67;;;16.90;99.90;;;;;;5023538;28;20230;-53
2022/08/20 05:40:35;;;;;;;25.37;22.87;;;17.00;99.90;;;;;;5025922;28;20257;-53
2022/08/20 05:43:03;;;;;;;25.97;23.47;;;17.30;99.90;;;;;;5024128;28;20619;-53
2022/08/20 05:45:30;;;;;;;25.03;22.57;;;17.80;99.90;;;;;;5028791;28;20211;-53
2022/08/20 05:47:58;;;;;;;22.40;20.40;;;18.40;99.90;;;;;;5029665;28;20195;-52
2022/08/20 05:50:25;;;;;;;20.47;18.67;;;18.80;99.90;;;;;;5029541;28;20202;-53
2022/08/20 05:52:52;;;;;;;18.20;16.60;;;19.20;99.90;;;;;;5023009;28;20626;-53
2022/08/20 05:55:23;;;;;;;20.10;18.30;;;19.50;99.90;;;;;;5018995;28;20270;-53
2022/08/20 05:57:55;;;;;;;18.77;17.13;;;19.80;99.90;;;;;;5013088;28;20203;-53
2022/08/20 06:00:22;;;;;;;17.70;16.30;;;20.30;99.90;;;;;;5028991;28;20194;-53
2022/08/20 06:05:34;;;;;;;17.27;15.97;;;20.70;99.90;;;;;;5021990;28;20226;-53
2022/08/20 06:08:04;;;;;;;16.53;15.03;;;21.10;99.90;;;;;;5022526;28;20211;-53
2022/08/20 06:10:34;;;;;;;17.70;16.20;;;21.40;99.90;;;;;;5012697;28;20257;-52
2022/08/20 06:13:04;;;;;;;16.50;15.10;;;21.60;99.90;;;;;;5014487;28;20199;-53
2022/08/20 06:15:32;;;;;;;15.13;13.93;;;22.10;99.90;;;;;;5011284;28;20366;-53
2022/08/20 06:17:59;;;;;;;16.07;14.53;;;22.70;99.90;;;;;;5014891;28;20211;-53
2022/08/20 06:20:27;;;;;;;15.57;14.37;;;23.20;99.90;;;;;;5021021;28;20268;-53
2022/08/20 06:22:54;;;;;;;19.10;17.33;;;23.70;99.90;;;;;;5015731;28;20203;-53
2022/08/20 06:25:22;;;;;;;18.13;16.60;;;24.40;99.90;;;;;;5011064;28;20807;-53
2022/08/20 06:27:50;;;;;;;15.57;14.30;;;24.00;99.90;;;;;;5011525;28;20234;-53
2022/08/20 06:30:17;;;;;;;14.33;13.23;;;24.30;99.90;;;;;;5011315;28;20223;-53
2022/08/20 06:32:44;;;;;;;13.87;12.77;;;24.90;99.90;;;;;;5019110;28;20325;-53
2022/08/20 06:35:14;;;;;;;14.33;13.33;;;25.60;99.90;;;;;;5028849;28;20218;-53
2022/08/20 06:37:41;;;;;;;12.43;11.63;;;25.50;99.90;;;;;;5022274;28;20652;-53
2022/08/20 06:40:12;;;;;;;12.10;10.90;;;26.00;99.90;;;;;;5019461;28;20203;-53
2022/08/20 06:42:42;;;;;;;11.40;10.47;;;26.20;99.90;;;;;;5018571;28;20207;-53
2022/08/20 06:45:11;;;;;;;11.13;10.43;;;26.20;99.90;;;;;;5014971;28;20242;-53
2022/08/20 06:47:40;;;;;;;11.73;11.00;;;26.60;99.90;;;;;;5020725;28;20199;-53
2022/08/20 06:50:09;;;;;;;12.88;11.98;;;26.60;99.90;;;;;;5020349;28;20241;-53
2022/08/20 06:52:38;;;;;;;11.15;10.45;;;26.30;99.90;;;;;;5021986;28;20854;-53
2022/08/20 06:55:06;;;;;;;12.73;11.93;;;26.30;99.90;;;;;;5031051;28;20776;-53
2022/08/20 06:57:33;;;;;;;13.50;12.50;;;25.80;99.90;;;;;;5032588;28;20286;-52
2022/08/20 07:00:00;;;;;;;13.90;12.77;;;25.50;99.90;;;;;;5020019;28;20681;-53
2022/08/20 07:02:29;;;;;;;13.23;12.33;;;25.30;99.90;;;;;;5025595;28;20264;-53
2022/08/20 07:04:56;;;;;;;12.03;11.23;;;25.70;99.90;;;;;;5025202;28;20226;-52
2022/08/20 07:07:23;;;;;;;11.93;11.13;;;25.90;99.90;;;;;;5034013;28;20194;-53
2022/08/20 07:09:50;;;;;;;12.25;11.55;;;26.30;99.90;;;;;;5034103;28;20249;-52
2022/08/20 07:12:17;;;;;;;12.83;11.93;;;26.40;99.90;;;;;;5027215;28;20246;-53
2022/08/20 07:14:44;;;;;;;11.63;10.87;;;26.40;99.90;;;;;;5025477;28;20317;-53
2022/08/20 07:17:12;;;;;;;10.53;9.93;;;26.00;99.90;;;;;;5032034;28;20268;-52
2022/08/20 07:19:40;;;;;;;11.73;11.03;;;25.60;99.90;;;;;;5034026;28;20198;-53
2022/08/20 07:22:07;;;;;;;12.53;11.67;;;24.60;99.90;;;;;;5026055;28;20206;-52
2022/08/20 07:24:34;;;;;;;11.50;10.70;;;23.90;99.90;;;;;;5022030;28;20209;-53
2022/08/20 07:27:01;;;;;;;12.67;11.40;;;23.10;99.90;;;;;;5024220;28;20229;-53
2022/08/20 07:32:33;;;;;;;10.73;10.03;;;22.60;99.90;;;;;;5027550;28;20210;-53
2022/08/20 07:35:01;;;;;;;10.77;9.97;;;22.40;99.90;;;;;;5031630;28;20216;-53
2022/08/20 07:37:28;;;;;;;11.05;10.35;;;23.10;99.90;;;;;;5028964;28;20445;-52
2022/08/20 07:39:55;;;;;;;9.17;8.67;;;24.20;99.90;;;;;;5024535;28;20198;-53
2022/08/20 07:42:23;;;;;;;10.40;9.50;;;25.60;99.90;;;;;;5021722;28;20200;-52
2022/08/20 07:44:51;;;;;;;9.30;8.80;;;26.60;99.90;;;;;;5017557;28;20218;-53
2022/08/20 07:47:18;;;;;;;9.43;8.82;;;27.10;99.90;;;;;;5029408;28;20202;-53
2022/08/20 07:49:45;;;;;;;7.65;7.25;;;27.80;99.90;;;;;;5030414;28;20194;-53
2022/08/20 07:52:14;;;;;;;8.77;8.20;;;28.40;99.90;;;;;;5023949;28;20218;-53
2022/08/20 07:54:42;;;;;;;7.28;6.88;;;28.40;99.90;;;;;;5011320;28;20223;-53
2022/08/20 07:57:10;;;;;;;7.95;7.53;;;28.90;99.90;;;;;;5010257;28;20573;-53
2022/08/20 07:59:38;;;;;;;7.57;7.13;;;29.00;99.90;;;;;;5011937;28;20195;-53
2022/08/20 08:02:05;;;;;;;8.13;7.63;;;29.00;99.90;;;;;;5019293;28;20208;-53
2022/08/20 08:04:33;;;;;;;8.07;7.65;;;29.40;99.90;;;;;;5022094;28;20645;-53
2022/08/20 08:07:00;;;;;;;6.63;6.35;;;29.80;99.90;;;;;;5014246;28;20276;-53
2022/08/20 08:09:29;;;;;;;8.15;7.60;;;30.00;99.90;;;;;;5028241;28;20199;-53
2022/08/20 08:11:59;;;;;;;8.27;7.88;;;30.30;99.90;;;;;;5020673;28;20218;-53
2022/08/20 08:14:31;;;;;;;8.23;7.88;;;30.00;99.90;;;;;;5020168;28;20649;-53
2022/08/20 08:17:03;;;;;;;7.07;6.68;;;29.90;99.90;;;;;;5025610;28;20669;-53
2022/08/20 08:19:37;;;;;;;6.72;6.22;;;29.60;99.90;;;;;;5022849;28;20253;-53
2022/08/20 08:22:05;;;;;;;5.80;5.60;;;29.40;99.90;;;;;;5019479;28;20654;-53
2022/08/20 08:24:33;;;;;;;7.97;7.55;;;29.60;99.90;;;;;;5025020;28;20207;-52
2022/08/20 08:27:00;;;;;;;7.10;6.80;;;29.80;99.90;;;;;;5017906;28;20195;-53
2022/08/20 08:29:28;;;;;;;8.00;7.60;;;30.00;99.90;;;;;;5027505;28;20256;-53
2022/08/20 08:31:55;;;;;;;8.20;7.80;;;29.40;99.90;;;;;;5032463;28;20272;-53
2022/08/20 08:34:24;;;;;;;7.57;7.28;;;28.30;99.90;;;;;;5025101;28;20214;-53
2022/08/20 08:36:51;;;;;;;9.20;8.65;;;27.30;99.90;;;;;;5028675;28;20603;-53
2022/08/20 08:39:19;;;;;;;7.32;6.90;;;26.40;99.90;;;;;;5032401;28;20240;-53
2022/08/20 08:41:49;;;;;;;7.78;7.35;;;26.00;99.90;;;;;;5023476;28;20233;-53
2022/08/20 08:44:23;;;;;;;7.00;6.60;;;25.50;99.90;;;;;;5030361;28;20284;-53
2022/08/20 08:46:55;;;;;;;8.55;7.90;;;25.10;99.90;;;;;;5031345;28;20206;-53
2022/08/20 08:49:25;;;;;;;7.95;7.55;;;25.00;99.90;;;;;;5032346;28;20209;-53
2022/08/20 08:51:59;;;;;;;7.30;6.95;;;26.00;99.90;;;;;;5024892;28;20218;-53
2022/08/20 08:54:30;;;;;;;7.55;6.88;;;26.80;99.90;;;;;;5031550;28;20198;-53
2022/08/20 08:57:00;;;;;;;6.97;6.57;;;27.80;99.90;;;;;;5029829;28;20206;-53
2022/08/20 08:59:30;;;;;;;8.23;7.72;;;27.60;99.90;;;;;;5031405;28;20204;-53
2022/08/20 09:02:00;;;;;;;6.30;6.00;;;27.80;99.90;;;;;;5031055;28;20245;-53
2022/08/20 09:04:35;;;;;;;6.18;5.85;;;28.30;99.90;;;;;;5026300;28;20199;-54
2022/08/20 09:07:05;;;;;;;7.53;7.18;;;29.40;99.90;;;;;;5023133;28;20232;-53
2022/08/20 09:09:36;;;;;;;6.90;6.50;;;29.80;99.90;;;;;;5025731;28;20575;-53
2022/08/20 09:12:07;;;;;;;7.13;6.75;;;29.00;99.90;;;;;;5022148;28;20242;-53
2022/08/20 09:14:34;;;;;;;5.65;5.38;;;28.40;99.90;;;;;;5028869;28;20210;-53
2022/08/20 09:17:02;;;;;;;5.20;4.93;;;27.60;99.90;;;;;;5030537;28;20260;-53
2022/08/20 09:19:29;;;;;;;6.60;6.30;;;26.70;99.90;;;;;;5012394;28;20227;-53
2022/08/20 09:21:56;;;;;;;6.70;6.40;;;26.20;99.90;;;;;;5024996;28;20348;-53
2022/08/20 09:24:23;;;;;;;5.82;5.53;;;25.60;99.90;;;;;;5028394;28;20687;-53
2022/08/20 09:26:50;;;;;;;7.32;6.93;;;25.00;99.90;;;;;;5023145;28;20218;-53
2022/08/20 09:29:19;;;;;;;7.95;7.28;;;24.90;99.90;;;;;;5025274;28;20739;-53
2022/08/20 09:31:46;;;;;;;7.72;7.32;;;24.40;99.90;;;;;;5028304;28;20272;-53
2022/08/20 09:34:13;;;;;;;8.52;7.93;;;23.90;99.90;;;;;;5023861;28;20206;-54
2022/08/20 09:36:40;;;;;;;7.83;7.10;;;23.40;99.90;;;;;;5023896;28;20231;-53
2022/08/20 09:39:08;;;;;;;8.27;7.57;;;23.10;99.90;;;;;;5031191;28;20206;-53
2022/08/20 09:41:35;;;;;;;8.40;7.60;;;22.90;99.90;;;;;;5020895;28;20194;-53
2022/08/20 09:44:03;;;;;;;7.23;6.87;;;22.50;99.90;;;;;;5028373;28;20209;-53
2022/08/20 09:46:31;;;;;;;7.23;6.73;;;22.30;99.90;;;;;;5031324;28;20218;-53
2022/08/20 09:48:59;;;;;;;8.57;8.07;;;22.40;99.90;;;;;;5022792;28;20203;-53
2022/08/20 09:51:26;;;;;;;8.90;8.40;;;22.40;99.90;;;;;;5029016;28;20206;-53
2022/08/20 09:53:54;;;;;;;8.60;8.00;;;22.40;99.90;;;;;;5029071;28;20236;-53
2022/08/20 09:56:21;;;;;;;7.77;6.97;;;22.40;99.90;;;;;;5038249;28;20214;-53
2022/08/20 09:58:50;;;;;;;9.17;8.50;;;22.70;99.90;;;;;;5035153;28;20202;-53
2022/08/20 10:01:19;;;;;;;9.07;8.47;;;22.80;99.90;;;;;;5025416;28;20584;-53
2022/08/20 10:03:48;;;;;;;7.50;7.00;;;23.60;99.90;;;;;;5029099;28;20198;-53
2022/08/20 10:06:18;;;;;;;6.80;6.50;;;24.60;99.90;;;;;;5024332;28;20219;-53
2022/08/20 10:08:45;;;;;;;8.03;7.33;;;25.50;99.90;;;;;;5029061;28;20680;-53
2022/08/20 10:11:13;;;;;;;6.33;5.93;;;25.60;99.90;;;;;;5023164;28;20566;-52
2022/08/20 10:13:40;;;;;;;6.93;6.40;;;25.60;99.90;;;;;;5028278;28;20317;-53
2022/08/20 10:16:07;;;;;;;7.13;6.83;;;25.50;99.90;;;;;;5029666;28;20283;-53
2022/08/20 10:18:34;;;;;;;6.22;5.93;;;25.00;99.90;;;;;;5028364;28;20202;-53
2022/08/20 10:21:08;;;;;;;7.47;7.18;;;24.80;99.90;;;;;;5027259;28;20210;-53
2022/08/20 10:23:35;;;;;;;8.32;7.93;;;24.40;99.90;;;;;;5026471;28;20245;-53
2022/08/20 10:26:02;;;;;;;9.53;8.70;;;24.10;99.90;;;;;;5021950;28;20225;-53
2022/08/20 10:28:29;;;;;;;8.83;8.33;;;23.80;99.90;;;;;;5025130;28;20580;-53
2022/08/20 10:30:56;;;;;;;10.47;9.67;;;23.60;99.90;;;;;;5030705;28;20211;-53
2022/08/20 10:33:23;;;;;;;8.70;8.03;;;23.40;99.90;;;;;;5024388;28;20229;-53
2022/08/20 10:35:50;;;;;;;8.77;8.27;;;23.40;99.90;;;;;;5029106;28;20276;-53
2022/08/20 10:38:19;;;;;;;8.63;8.13;;;23.20;99.90;;;;;;5028972;28;20257;-53
2022/08/20 10:40:46;;;;;;;9.37;8.67;;;22.80;99.90;;;;;;5024738;28;20198;-53
2022/08/20 10:43:13;;;;;;;8.90;8.20;;;22.60;99.90;;;;;;5025790;28;20198;-53
2022/08/20 10:45:40;;;;;;;8.23;7.63;;;22.60;99.90;;;;;;5029180;28;20618;-53
2022/08/20 10:48:07;;;;;;;8.30;7.80;;;22.40;99.90;;;;;;5026700;28;20265;-53
2022/08/20 10:50:34;;;;;;;8.18;7.65;;;22.30;99.90;;;;;;5023595;28;20994;-52
2022/08/20 10:53:04;;;;;;;9.10;8.60;;;22.10;99.90;;;;;;5027323;28;20268;-52
2022/08/20 10:55:32;;;;;;;8.27;7.47;;;21.90;99.90;;;;;;5026002;28;20226;-53
2022/08/20 10:57:59;;;;;;;5.97;5.57;;;21.90;99.90;;;;;;5026691;28;20252;-53
2022/08/20 11:00:26;;;;;;;4.60;4.40;;;21.90;99.90;;;;;;5013713;28;20250;-52
2022/08/20 11:02:54;;;;;;;2.30;2.30;;;21.70;99.90;;;;;;5016785;28;20235;-52
2022/08/20 11:05:21;;;;;;;2.90;2.80;;;21.80;99.90;;;;;;5015979;28;20227;-52
2022/08/20 11:07:48;;;;;;;3.90;3.60;;;21.90;99.90;;;;;;5013353;28;20203;-53
2022/08/20 11:10:15;;;;;;;3.20;3.00;;;22.00;99.90;;;;;;5030869;28;20919;-52
2022/08/20 11:12:43;;;;;;;3.67;3.47;;;22.30;99.90;;;;;;5030747;28;20254;-53
2022/08/20 11:15:11;;;;;;;3.47;3.27;;;22.50;99.90;;;;;;5015504;28;20717;-53
2022/08/20 11:17:41;;;;;;;4.17;3.97;;;22.70;99.90;;;;;;5013377;28;20250;-53
2022/08/20 11:20:10;;;;;;;2.93;2.83;;;22.70;99.90;;;;;;5013732;28;20274;-53
2022/08/20 11:22:37;;;;;;;3.10;2.90;;;22.80;99.90;;;;;;5013394;28;20223;-53
2022/08/20 11:25:06;;;;;;;3.00;2.90;;;22.80;99.90;;;;;;5013516;28;20234;-53
2022/08/20 11:27:35;;;;;;;5.67;4.03;;;22.70;99.90;;;;;;5013882;28;20250;-53
2022/08/20 11:30:05;;;;;;;4.60;4.33;;;22.40;99.90;;;;;;5013371;28;20223;-53
2022/08/20 11:32:32;;;;;;;4.20;4.00;;;22.30;99.90;;;;;;5013721;28;20269;-53
2022/08/20 11:34:59;;;;;;;3.20;3.00;;;22.20;99.90;;;;;;5016645;28;20229;-53
2022/08/20 11:37:28;;;;;;;3.43;3.23;;;22.10;99.90;;;;;;5017226;28;20191;-52
2022/08/20 11:39:55;;;;;;;2.73;2.60;;;22.10;99.90;;;;;;5012946;28;20195;-53
2022/08/20 11:42:22;;;;;;;2.47;2.37;;;22.00;99.90;;;;;;5024469;28;20198;-53
2022/08/20 11:44:49;;;;;;;3.07;2.87;;;21.60;99.90;;;;;;5027618;28;20258;-53
2022/08/20 11:47:23;;;;;;;2.47;2.37;;;21.30;99.90;;;;;;5023697;28;20194;-52
2022/08/20 11:49:58;;;;;;;1.53;1.53;;;21.20;99.90;;;;;;5020199;28;20345;-52
2022/08/20 11:52:25;;;;;;;1.20;1.20;;;21.00;99.90;;;;;;5019258;28;20277;-53
2022/08/20 11:54:52;;;;;;;1.47;1.37;;;21.20;99.90;;;;;;5024130;28;20230;-52
2022/08/20 11:57:21;;;;;;;1.07;0.97;;;21.40;99.90;;;;;;5023308;28;20206;-52
2022/08/20 11:59:49;;;;;;;1.27;1.27;;;21.50;99.90;;;;;;5019348;28;20198;-53
2022/08/20 12:02:16;;;;;;;1.13;1.13;;;21.60;99.90;;;;;;5018427;28;20199;-53
2022/08/20 12:04:45;;;;;;;1.07;1.07;;;21.70;99.90;;;;;;5028734;28;20272;-53
2022/08/20 12:07:14;;;;;;;1.40;1.40;;;21.80;99.90;;;;;;5016883;28;20249;-53
2022/08/20 12:09:43;;;;;;;1.30;1.30;;;21.70;99.90;;;;;;5020253;28;20257;-53
2022/08/20 12:12:10;;;;;;;1.75;1.75;;;21.80;99.90;;;;;;5023317;28;20453;-53
2022/08/20 12:14:38;;;;;;;2.10;2.10;;;22.10;99.90;;;;;;5015465;28;20211;-52
2022/08/20 12:17:09;;;;;;;3.07;2.93;;;22.30;99.90;;;;;;5013880;28;20265;-53
2022/08/20 12:19:37;;;;;;;2.87;2.87;;;22.40;99.90;;;;;;5012064;28;20284;-53
2022/08/20 12:22:06;;;;;;;4.27;4.07;;;22.40;99.90;;;;;;5023112;28;20264;-52
2022/08/20 12:24:33;;;;;;;3.50;3.40;;;22.50;99.90;;;;;;5016085;28;20191;-53
2022/08/20 12:27:09;;;;;;;4.40;4.20;;;22.60;99.90;;;;;;5013161;28;20203;-53
2022/08/20 12:29:37;;;;;;;4.83;4.63;;;22.70;99.90;;;;;;5020411;28;20199;-53
2022/08/20 12:32:06;;;;;;;4.63;4.33;;;22.70;99.90;;;;;;5023601;28;20285;-53
2022/08/20 12:34:33;;;;;;;4.43;4.30;;;22.70;99.90;;;;;;5022198;28;20227;-52
2022/08/20 12:37:01;;;;;;;4.17;4.07;;;22.80;99.90;;;;;;5029661;28;20198;-53
2022/08/20 12:39:33;;;;;;;4.60;4.30;;;23.00;99.90;;;;;;5024241;28;20851;-53
2022/08/20 12:42:01;;;;;;;4.83;4.53;;;23.10;99.90;;;;;;5024214;28;20203;-53
2022/08/20 12:44:28;;;;;;;5.33;4.73;;;23.00;99.90;;;;;;5019863;28;20571;-53
2022/08/20 12:47:06;;;;;;;4.50;4.37;;;23.30;99.90;;;;;;5030469;28;20249;-53
2022/08/20 12:49:33;;;;;;;4.67;4.47;;;23.30;99.90;;;;;;5028146;28;20203;-53